Time;durP1;ratioP1;P1;durP2;ratioP2;P2;SDS_P1;SDS_P2;PMS_P1;PMS_P2;Temp;Humidity;BMP_temperature;BMP_pressure;BME280_temperature;BME280_humidity;BME280_pressure;Samples;Min_cycle;Max_cycle;Signal;HPM_P1;HPM_P2
2022/07/07 05:53:56;;;;;;;1.57;1.30;;;25.60;76.80;;;;;;5032665;28;20429;-85
2022/07/07 05:56:23;;;;;;;1.70;1.30;;;25.50;77.10;;;;;;5032315;28;20449;-82
2022/07/07 05:58:50;;;;;;;5.77;1.50;;;25.50;77.00;;;;;;5031893;28;20482;-82
2022/07/07 06:01:18;;;;;;;2.70;1.90;;;25.60;77.00;;;;;;5032470;28;20542;-84
2022/07/07 06:03:45;;;;;;;2.70;1.70;;;25.60;77.10;;;;;;5033318;28;20886;-89
2022/07/07 06:06:12;;;;;;;15.10;2.77;;;25.60;77.10;;;;;;5033172;28;20488;-90
2022/07/07 06:08:41;;;;;;;5.60;1.70;;;25.60;77.10;;;;;;5033863;28;20457;-85
2022/07/07 06:11:10;;;;;;;14.17;2.07;;;25.60;77.30;;;;;;5033002;28;20482;-83
2022/07/07 06:13:37;;;;;;;4.00;1.77;;;25.60;77.10;;;;;;5033464;28;20446;-91
2022/07/07 06:16:04;;;;;;;5.87;1.57;;;25.60;77.20;;;;;;5034370;28;20538;-91
2022/07/07 06:18:31;;;;;;;4.70;1.80;;;25.70;77.60;;;;;;5048915;28;20449;-92
2022/07/07 06:20:58;;;;;;;3.97;2.13;;;25.70;77.50;;;;;;5054004;28;20537;-91
2022/07/07 06:23:25;;;;;;;5.30;1.43;;;25.70;77.40;;;;;;5046052;28;20462;-94
2022/07/07 06:25:52;;;;;;;1.43;1.33;;;25.60;77.20;;;;;;5040558;28;20478;-91
2022/07/07 06:28:20;;;;;;;2.67;1.20;;;25.60;75.60;;;;;;5056174;28;20434;-92
2022/07/07 06:30:47;;;;;;;4.77;1.80;;;25.70;76.40;;;;;;5045435;28;20498;-89
2022/07/07 06:33:13;;;;;;;4.63;1.70;;;25.60;75.30;;;;;;5040571;28;20545;-91
2022/07/07 06:35:40;;;;;;;2.40;1.60;;;25.70;76.20;;;;;;5041486;28;20529;-84
2022/07/07 06:38:07;;;;;;;3.40;1.60;;;25.70;76.50;;;;;;5029900;28;20443;-86
2022/07/07 06:40:35;;;;;;;1.67;1.57;;;25.60;76.20;;;;;;5033455;28;20485;-83
2022/07/07 06:43:02;;;;;;;3.43;1.50;;;25.60;77.20;;;;;;5071110;28;20465;-82
2022/07/07 06:45:31;;;;;;;4.10;1.90;;;25.60;77.10;;;;;;5076307;28;20843;-84
2022/07/07 06:47:58;;;;;;;3.03;1.30;;;25.60;77.00;;;;;;5064303;28;20446;-84
2022/07/07 06:50:25;;;;;;;5.13;1.93;;;25.60;77.20;;;;;;5056357;28;20445;-89
2022/07/07 06:52:55;;;;;;;3.27;1.57;;;25.60;76.10;;;;;;5071325;28;20483;-83
2022/07/07 06:55:22;;;;;;;2.33;1.63;;;25.60;75.90;;;;;;5086217;28;20574;-87
2022/07/07 06:57:51;;;;;;;8.33;1.50;;;25.60;75.80;;;;;;5078505;28;20442;-88
2022/07/07 07:00:19;;;;;;;2.30;1.27;;;25.70;76.10;;;;;;5077650;28;20461;-85
2022/07/07 07:02:48;;;;;;;4.93;1.20;;;25.70;75.40;;;;;;5067067;28;20461;-92
2022/07/07 07:05:16;;;;;;;2.30;1.20;;;25.70;75.10;;;;;;5056620;28;20456;-90
2022/07/07 07:07:43;;;;;;;4.27;1.50;;;25.70;74.60;;;;;;5055576;28;20524;-83
2022/07/07 07:10:10;;;;;;;4.90;1.50;;;25.70;74.20;;;;;;5057437;28;20430;-83
2022/07/07 07:12:37;;;;;;;9.40;1.70;;;25.70;75.00;;;;;;5070629;28;20568;-90
2022/07/07 07:15:04;;;;;;;4.20;1.40;;;25.80;76.10;;;;;;5074460;28;20444;-80
2022/07/07 07:17:31;;;;;;;13.57;1.50;;;25.80;75.20;;;;;;5074341;28;20552;-80
2022/07/07 07:19:59;;;;;;;7.90;1.70;;;25.80;74.70;;;;;;5074287;28;20441;-84
2022/07/07 07:22:26;;;;;;;3.03;1.10;;;25.80;74.20;;;;;;5072321;28;20859;-80
2022/07/07 07:24:53;;;;;;;1.20;1.10;;;25.80;73.60;;;;;;5072450;28;20449;-80
2022/07/07 07:27:20;;;;;;;4.23;1.20;;;25.80;73.00;;;;;;5072227;28;20870;-80
2022/07/07 07:29:47;;;;;;;4.47;1.40;;;25.80;72.70;;;;;;5072198;28;20518;-80
2022/07/07 07:32:14;;;;;;;2.23;1.00;;;25.80;72.40;;;;;;5072092;28;20580;-80
2022/07/07 07:34:41;;;;;;;2.47;1.30;;;25.80;72.30;;;;;;5072089;28;20520;-80
2022/07/07 07:37:09;;;;;;;3.63;1.03;;;25.80;72.20;;;;;;5074555;28;20524;-81
2022/07/07 07:39:36;;;;;;;3.47;1.23;;;25.80;71.90;;;;;;5074747;28;20531;-81
2022/07/07 07:42:03;;;;;;;2.13;0.97;;;25.80;71.80;;;;;;5074619;28;20573;-81
2022/07/07 07:47:14;;;;;;;6.23;0.93;;;25.80;71.70;;;;;;5074862;28;20424;-80
2022/07/07 07:49:41;;;;;;;2.37;1.07;;;25.80;71.60;;;;;;5074569;28;20532;-80
2022/07/07 07:52:09;;;;;;;1.30;1.13;;;25.80;71.50;;;;;;5074587;28;20516;-80
2022/07/07 07:54:36;;;;;;;1.30;0.80;;;25.80;71.40;;;;;;5074558;28;20447;-80
2022/07/07 07:57:04;;;;;;;2.33;1.07;;;25.80;71.30;;;;;;5074583;28;20441;-81
2022/07/07 07:59:31;;;;;;;2.20;1.30;;;25.80;71.20;;;;;;5074488;28;20472;-80
2022/07/07 08:01:58;;;;;;;1.27;1.07;;;25.80;71.30;;;;;;5074424;28;20443;-80
2022/07/07 08:04:24;;;;;;;1.43;0.93;;;25.80;71.30;;;;;;5074336;28;20502;-80
2022/07/07 08:06:51;;;;;;;1.70;1.10;;;25.80;71.30;;;;;;5074002;28;20527;-81
2022/07/07 08:09:20;;;;;;;2.00;0.93;;;25.80;71.20;;;;;;5074269;28;20532;-82
2022/07/07 08:11:46;;;;;;;1.77;1.20;;;25.80;71.00;;;;;;5074154;28;20559;-81
2022/07/07 08:14:13;;;;;;;1.60;0.90;;;25.80;71.00;;;;;;5074199;28;20524;-81
2022/07/07 08:16:40;;;;;;;1.80;0.90;;;25.80;70.90;;;;;;5073804;28;21000;-81
2022/07/07 08:19:07;;;;;;;1.13;0.80;;;25.80;70.90;;;;;;5074074;28;20536;-80
2022/07/07 08:21:34;;;;;;;1.60;0.90;;;25.90;70.90;;;;;;5074129;28;20437;-80
2022/07/07 08:24:01;;;;;;;1.47;1.10;;;25.80;70.80;;;;;;5074002;28;20443;-81
2022/07/07 08:26:29;;;;;;;1.20;0.93;;;25.80;70.70;;;;;;5073841;28;20472;-80
2022/07/07 08:28:56;;;;;;;2.70;1.07;;;25.90;70.70;;;;;;5073753;28;21027;-80
2022/07/07 08:31:23;;;;;;;2.07;1.03;;;25.80;70.60;;;;;;5073794;28;21035;-81
2022/07/07 08:33:50;;;;;;;3.00;1.00;;;25.80;70.70;;;;;;5073748;28;20532;-80
2022/07/07 08:36:16;;;;;;;1.10;0.83;;;25.80;70.60;;;;;;5073835;28;20479;-80
2022/07/07 08:38:43;;;;;;;1.17;0.90;;;25.80;70.50;;;;;;5073824;28;20472;-85
2022/07/07 08:41:10;;;;;;;1.10;1.00;;;25.80;70.40;;;;;;5073165;28;20559;-81
2022/07/07 08:43:38;;;;;;;1.20;0.90;;;25.80;70.50;;;;;;5073567;28;20459;-80
2022/07/07 08:46:06;;;;;;;1.30;0.87;;;25.90;70.50;;;;;;5073504;28;20548;-80
2022/07/07 08:48:32;;;;;;;1.93;0.90;;;25.90;70.40;;;;;;5073631;28;20519;-81
2022/07/07 08:51:00;;;;;;;1.73;0.80;;;25.80;70.30;;;;;;5073447;28;20437;-80
2022/07/07 08:53:28;;;;;;;1.63;1.00;;;25.80;70.30;;;;;;5073332;28;20919;-80
2022/07/07 08:55:56;;;;;;;1.27;0.83;;;25.80;70.30;;;;;;5073534;28;20440;-80
2022/07/07 08:58:24;;;;;;;1.57;0.97;;;25.80;70.30;;;;;;5073408;28;20830;-81
2022/07/07 09:00:53;;;;;;;3.17;0.80;;;25.80;70.20;;;;;;5073520;28;20533;-81
2022/07/07 09:03:20;;;;;;;3.23;1.10;;;25.80;70.10;;;;;;5073781;28;20544;-80
2022/07/07 09:05:48;;;;;;;1.30;0.80;;;25.80;70.20;;;;;;5073314;28;20441;-80
2022/07/07 09:08:18;;;;;;;2.53;1.40;;;25.80;70.20;;;;;;5075557;28;20864;-81
2022/07/07 09:10:45;;;;;;;0.97;0.77;;;25.80;70.10;;;;;;5073379;28;20856;-81
2022/07/07 09:13:24;;;;;;;3.90;1.20;;;25.80;70.10;;;;;;5073875;28;20521;-91
2022/07/07 09:15:53;;;;;;;0.90;0.80;;;25.80;70.00;;;;;;5073389;28;20437;-80
2022/07/07 09:18:31;;;;;;;1.10;0.93;;;25.80;70.00;;;;;;5073311;28;20523;-81
2022/07/07 09:20:59;;;;;;;2.00;1.10;;;25.80;70.00;;;;;;5073182;28;20527;-81
2022/07/07 09:23:26;;;;;;;1.30;0.80;;;25.80;70.00;;;;;;5073209;28;20881;-80
2022/07/07 09:25:53;;;;;;;2.00;0.80;;;25.80;69.90;;;;;;5072971;28;20528;-81
2022/07/07 09:28:20;;;;;;;1.27;0.97;;;25.80;69.90;;;;;;5073228;28;20535;-80
2022/07/07 09:30:49;;;;;;;0.90;0.73;;;25.80;70.80;;;;;;5073019;28;20990;-80
2022/07/07 09:33:20;;;;;;;1.20;0.90;;;25.80;69.90;;;;;;5073151;28;20579;-90
2022/07/07 09:38:34;;;;;;;1.20;0.80;;;25.80;69.90;;;;;;5073411;28;20431;-81
2022/07/07 09:41:03;;;;;;;0.90;0.73;;;25.80;69.90;;;;;;5072859;28;20563;-81
2022/07/07 09:43:33;;;;;;;0.90;0.70;;;25.80;69.90;;;;;;5073078;28;20931;-81
2022/07/07 09:46:08;;;;;;;1.20;0.90;;;25.80;69.90;;;;;;5072989;28;20532;-81
2022/07/07 09:48:38;;;;;;;1.23;0.80;;;25.80;69.80;;;;;;5073092;28;20470;-81
2022/07/07 09:51:13;;;;;;;1.30;0.97;;;25.80;69.80;;;;;;5073262;28;20799;-81
2022/07/07 09:54:02;;;;;;;0.97;0.80;;;25.80;69.80;;;;;;5072853;28;20574;-80
2022/07/07 09:56:31;;;;;;;1.20;0.80;;;25.80;69.70;;;;;;5074123;28;21126;-90
2022/07/07 09:58:58;;;;;;;1.33;0.73;;;25.80;69.90;;;;;;5076843;28;20524;-80
2022/07/07 10:01:27;;;;;;;0.97;0.70;;;25.80;69.90;;;;;;5076646;28;20492;-81
2022/07/07 10:03:58;;;;;;;1.00;0.73;;;25.80;69.90;;;;;;5076761;28;20479;-81
2022/07/07 10:06:26;;;;;;;1.43;0.80;;;25.80;69.80;;;;;;5076649;28;20519;-81
2022/07/07 10:08:58;;;;;;;1.10;0.73;;;25.80;69.80;;;;;;5077153;28;20444;-81
2022/07/07 10:11:33;;;;;;;1.00;0.70;;;25.80;69.80;;;;;;5077024;28;20443;-80
2022/07/07 10:14:09;;;;;;;1.33;0.87;;;25.80;69.60;;;;;;5076515;28;20488;-80
2022/07/07 10:16:36;;;;;;;1.83;0.70;;;25.80;69.60;;;;;;5076958;28;20514;-80
2022/07/07 10:19:05;;;;;;;1.00;0.73;;;25.80;69.60;;;;;;5076426;28;20468;-80
2022/07/07 10:21:32;;;;;;;1.57;0.70;;;25.80;69.50;;;;;;5076370;28;20432;-80
2022/07/07 10:24:00;;;;;;;1.00;0.70;;;25.80;69.50;;;;;;5076180;28;20559;-79
2022/07/07 10:26:38;;;;;;;1.53;0.70;;;25.80;69.40;;;;;;5076078;28;20525;-81
2022/07/07 10:29:06;;;;;;;1.43;0.70;;;25.80;69.40;;;;;;5076250;28;20440;-81
2022/07/07 10:31:33;;;;;;;0.90;0.60;;;25.80;69.50;;;;;;5076243;28;20498;-82
2022/07/07 10:34:02;;;;;;;1.00;0.70;;;25.80;69.50;;;;;;5076078;28;20488;-82
2022/07/07 10:37:02;;;;;;;1.10;0.80;;;25.80;70.40;;;;;;5076686;28;20539;-82
2022/07/07 10:39:34;;;;;;;0.90;0.70;;;25.90;69.50;;;;;;5076258;28;20448;-81
2022/07/07 10:42:05;;;;;;;2.50;1.00;;;25.80;69.60;;;;;;5076001;28;20477;-81
2022/07/07 10:44:33;;;;;;;0.90;0.70;;;25.80;69.50;;;;;;5076001;28;20532;-81
2022/07/07 10:47:04;;;;;;;1.67;0.80;;;25.80;69.50;;;;;;5075986;28;20539;-81
2022/07/07 10:49:40;;;;;;;1.10;0.73;;;25.80;69.50;;;;;;5075947;28;20449;-81
2022/07/07 10:52:13;;;;;;;1.10;0.70;;;25.80;69.40;;;;;;5076012;28;20527;-81
2022/07/07 10:54:42;;;;;;;1.20;0.90;;;25.80;69.60;;;;;;5075902;28;20535;-81
2022/07/07 10:57:15;;;;;;;1.67;0.90;;;25.80;69.60;;;;;;5075771;28;20804;-91
2022/07/07 11:00:21;;;;;;;1.00;0.80;;;25.80;69.60;;;;;;5075667;28;20453;-81
2022/07/07 11:02:50;;;;;;;1.00;0.70;;;25.80;69.60;;;;;;5075588;28;20437;-82
2022/07/07 11:05:31;;;;;;;1.00;0.80;;;25.80;69.70;;;;;;5075692;28;20533;-81
2022/07/07 11:08:12;;;;;;;1.00;0.70;;;25.80;69.70;;;;;;5076307;28;20527;-80
2022/07/07 11:10:54;;;;;;;1.10;0.80;;;25.80;69.70;;;;;;5076302;28;20471;-80
2022/07/07 11:13:23;;;;;;;1.13;0.70;;;25.80;69.70;;;;;;5076858;28;21014;-79
2022/07/07 11:15:51;;;;;;;0.90;0.70;;;25.80;69.80;;;;;;5075480;28;20532;-81
2022/07/07 11:18:19;;;;;;;1.00;0.70;;;25.80;69.80;;;;;;5075835;28;20536;-91
2022/07/07 11:20:59;;;;;;;1.13;0.80;;;25.80;69.70;;;;;;5075149;28;21046;-80
2022/07/07 11:23:47;;;;;;;0.87;0.60;;;25.80;69.70;;;;;;5075537;28;20520;-81
2022/07/07 11:26:16;;;;;;;1.00;0.70;;;25.80;69.60;;;;;;5075032;28;20445;-80
2022/07/07 11:28:43;;;;;;;0.90;0.70;;;25.80;69.60;;;;;;5075365;28;20995;-81
2022/07/07 11:31:10;;;;;;;1.00;0.80;;;25.80;69.50;;;;;;5075117;28;20813;-90
2022/07/07 11:33:39;;;;;;;1.00;0.70;;;25.80;69.60;;;;;;5075282;28;20495;-81
2022/07/07 11:36:13;;;;;;;0.97;0.70;;;25.80;69.60;;;;;;5075299;28;20516;-81
2022/07/07 11:38:43;;;;;;;1.00;0.80;;;25.80;69.60;;;;;;5074916;28;20558;-80
2022/07/07 11:41:10;;;;;;;1.10;0.70;;;25.80;69.50;;;;;;5074937;28;20555;-80
2022/07/07 11:43:37;;;;;;;0.90;0.70;;;25.80;69.50;;;;;;5074780;28;20432;-80
2022/07/07 11:46:04;;;;;;;1.07;0.70;;;25.80;69.40;;;;;;5074794;28;20445;-82
2022/07/07 11:48:39;;;;;;;0.90;0.70;;;25.80;69.40;;;;;;5074953;28;20444;-80
2022/07/07 11:51:06;;;;;;;1.30;0.60;;;25.80;69.30;;;;;;5074686;28;20443;-80
2022/07/07 11:53:34;;;;;;;1.10;0.80;;;25.80;69.30;;;;;;5074665;28;20571;-81
2022/07/07 11:56:03;;;;;;;0.90;0.70;;;25.80;69.20;;;;;;5074956;28;20444;-82
2022/07/07 11:58:30;;;;;;;1.20;0.70;;;25.80;69.20;;;;;;5074598;28;20444;-81
2022/07/07 12:00:58;;;;;;;1.00;0.80;;;25.80;70.10;;;;;;5074570;28;20449;-81
2022/07/07 12:03:35;;;;;;;1.40;0.80;;;25.80;69.20;;;;;;5074564;28;20444;-81
2022/07/07 12:06:04;;;;;;;1.77;0.70;;;25.80;69.20;;;;;;5074366;28;20535;-81
2022/07/07 12:08:36;;;;;;;1.50;0.70;;;25.80;69.30;;;;;;5074295;28;20437;-81
2022/07/07 12:11:05;;;;;;;1.20;0.80;;;25.80;69.20;;;;;;5074447;28;20531;-81
2022/07/07 12:13:32;;;;;;;1.10;0.80;;;25.80;69.20;;;;;;5074090;28;20484;-81
2022/07/07 12:16:03;;;;;;;1.43;0.80;;;25.80;69.20;;;;;;5074199;28;20443;-81
2022/07/07 12:18:37;;;;;;;1.10;0.73;;;25.80;69.10;;;;;;5074252;28;20447;-81
2022/07/07 12:21:06;;;;;;;0.90;0.60;;;25.80;69.10;;;;;;5074377;28;20437;-81
2022/07/07 12:23:38;;;;;;;0.90;0.70;;;25.80;69.10;;;;;;5074116;28;20967;-81
2022/07/07 12:26:12;;;;;;;1.67;0.80;;;25.80;69.10;;;;;;5074162;28;20502;-81
2022/07/07 12:28:39;;;;;;;0.90;0.70;;;25.80;69.00;;;;;;5074118;28;20436;-82
2022/07/07 12:31:07;;;;;;;1.00;0.70;;;25.80;69.10;;;;;;5073982;28;20479;-81
2022/07/07 12:33:36;;;;;;;1.10;0.70;;;25.80;69.10;;;;;;5074019;28;20542;-81
2022/07/07 12:36:22;;;;;;;0.90;0.70;;;25.80;69.90;;;;;;5074016;28;20443;-80
2022/07/07 12:38:52;;;;;;;1.00;0.70;;;25.80;69.00;;;;;;5073646;28;20532;-80
2022/07/07 12:41:25;;;;;;;1.00;0.70;;;25.80;69.10;;;;;;5073639;28;20464;-80
2022/07/07 12:43:53;;;;;;;1.00;0.80;;;25.80;69.00;;;;;;5074303;28;20523;-81
2022/07/07 12:46:20;;;;;;;0.90;0.60;;;25.80;69.00;;;;;;5073758;28;20437;-81
2022/07/07 12:48:50;;;;;;;1.10;0.80;;;25.80;69.10;;;;;;5073531;28;20473;-80
2022/07/07 12:51:18;;;;;;;0.90;0.60;;;25.80;69.10;;;;;;5073796;28;20515;-80
2022/07/07 12:53:45;;;;;;;1.20;0.70;;;25.80;69.10;;;;;;5073550;28;20512;-80
2022/07/07 12:56:15;;;;;;;1.40;0.80;;;25.80;69.00;;;;;;5073796;28;20445;-80
2022/07/07 12:58:49;;;;;;;1.00;0.70;;;25.80;69.00;;;;;;5073455;28;20816;-80
2022/07/07 13:01:20;;;;;;;1.27;0.90;;;25.80;69.00;;;;;;5074127;28;20468;-80
2022/07/07 13:03:51;;;;;;;0.90;0.67;;;25.80;69.10;;;;;;5073851;28;20514;-80
2022/07/07 13:06:18;;;;;;;1.10;0.70;;;25.80;69.00;;;;;;5073775;28;20449;-81
2022/07/07 13:08:48;;;;;;;1.00;0.70;;;25.80;69.00;;;;;;5075209;28;20441;-80
2022/07/07 13:11:15;;;;;;;0.90;0.70;;;25.80;69.00;;;;;;5073979;28;20536;-91
2022/07/07 13:13:42;;;;;;;1.07;0.70;;;25.80;69.00;;;;;;5073785;28;20557;-81
2022/07/07 13:16:11;;;;;;;1.53;0.80;;;25.80;69.00;;;;;;5073422;28;20527;-91
2022/07/07 13:18:38;;;;;;;1.00;0.70;;;25.80;69.00;;;;;;5073467;28;20488;-81
2022/07/07 13:21:07;;;;;;;0.97;0.60;;;25.80;69.10;;;;;;5073351;28;20535;-81
2022/07/07 13:23:35;;;;;;;0.90;0.60;;;25.80;69.00;;;;;;5073399;28;20529;-81
2022/07/07 13:26:04;;;;;;;1.10;0.70;;;25.80;69.00;;;;;;5073046;28;21032;-81
2022/07/07 13:28:32;;;;;;;1.13;0.70;;;25.80;69.00;;;;;;5073249;28;20761;-81
2022/07/07 13:30:59;;;;;;;0.90;0.70;;;25.80;68.90;;;;;;5072195;28;20556;-81
2022/07/07 13:33:28;;;;;;;0.97;0.70;;;25.80;69.00;;;;;;5072968;28;20995;-82
2022/07/07 13:35:55;;;;;;;1.53;0.70;;;25.80;69.00;;;;;;5073211;28;20536;-82
2022/07/07 13:38:22;;;;;;;1.00;0.70;;;25.80;69.00;;;;;;5073055;28;20437;-81
2022/07/07 13:40:49;;;;;;;0.83;0.60;;;25.80;69.00;;;;;;5073168;28;20897;-81
2022/07/07 13:43:16;;;;;;;1.07;0.67;;;25.80;68.90;;;;;;5073280;28;20445;-81
2022/07/07 13:45:42;;;;;;;0.90;0.70;;;25.80;69.00;;;;;;5073172;28;20523;-81
2022/07/07 13:48:09;;;;;;;0.90;0.67;;;25.80;69.00;;;;;;5073505;28;20444;-82
2022/07/07 13:50:38;;;;;;;2.10;1.00;;;25.80;69.00;;;;;;5073060;28;20440;-81
2022/07/07 13:53:05;;;;;;;0.90;0.70;;;25.80;69.00;;;;;;5073144;28;20536;-81
2022/07/07 13:55:32;;;;;;;1.00;0.70;;;25.80;69.00;;;;;;5073255;28;20436;-82
2022/07/07 13:57:59;;;;;;;1.20;0.70;;;25.80;69.00;;;;;;5072983;28;20533;-81
2022/07/07 14:00:26;;;;;;;1.10;0.60;;;25.80;68.90;;;;;;5073168;28;20492;-82
2022/07/07 14:02:53;;;;;;;0.90;0.60;;;25.80;69.00;;;;;;5073868;28;20443;-84
2022/07/07 14:05:20;;;;;;;1.00;0.70;;;25.80;68.90;;;;;;5072970;28;21007;-81
2022/07/07 14:07:48;;;;;;;0.90;0.60;;;25.80;68.90;;;;;;5072679;28;20532;-92
2022/07/07 14:10:16;;;;;;;0.90;0.70;;;25.80;68.90;;;;;;5072848;28;20532;-91
2022/07/07 14:12:43;;;;;;;0.90;0.70;;;25.80;68.90;;;;;;5072765;28;20569;-90
2022/07/07 14:15:10;;;;;;;0.93;0.80;;;25.80;68.90;;;;;;5072605;28;20588;-81
2022/07/07 14:17:37;;;;;;;0.90;0.60;;;25.80;68.90;;;;;;5072661;28;20524;-81
2022/07/07 14:20:07;;;;;;;1.10;0.80;;;25.80;68.90;;;;;;5072837;28;20858;-81
2022/07/07 14:22:35;;;;;;;1.10;0.70;;;25.80;68.90;;;;;;5072705;28;20490;-82
2022/07/07 14:25:03;;;;;;;0.90;0.70;;;25.80;68.90;;;;;;5072829;28;20452;-82
2022/07/07 14:27:30;;;;;;;0.90;0.70;;;25.80;69.00;;;;;;5072833;28;20523;-82
2022/07/07 14:30:00;;;;;;;1.00;0.70;;;25.80;69.00;;;;;;5072674;28;20489;-81
2022/07/07 14:32:27;;;;;;;0.90;0.70;;;25.80;69.00;;;;;;5072506;28;20436;-81
2022/07/07 14:34:54;;;;;;;1.30;0.70;;;25.80;68.90;;;;;;5072886;28;20491;-82
2022/07/07 14:37:21;;;;;;;1.30;0.60;;;25.80;68.90;;;;;;5072323;28;20437;-82
2022/07/07 14:39:48;;;;;;;0.90;0.70;;;25.80;68.90;;;;;;5072699;28;20999;-81
2022/07/07 14:42:16;;;;;;;1.00;0.70;;;25.80;68.90;;;;;;5073043;28;20568;-82
2022/07/07 14:44:44;;;;;;;1.00;0.70;;;25.80;68.80;;;;;;5076521;28;20937;-89
2022/07/07 14:47:12;;;;;;;1.77;0.60;;;25.80;68.80;;;;;;5076160;28;21020;-90
2022/07/07 14:49:39;;;;;;;1.10;0.80;;;25.80;68.70;;;;;;5075942;28;20445;-81
2022/07/07 14:52:06;;;;;;;0.90;0.70;;;25.80;68.60;;;;;;5075881;28;20523;-81
2022/07/07 14:54:33;;;;;;;0.93;0.60;;;25.80;68.60;;;;;;5076365;28;20484;-81
2022/07/07 14:57:00;;;;;;;1.00;0.80;;;25.80;68.60;;;;;;5076148;28;20946;-80
2022/07/07 14:59:28;;;;;;;0.90;0.60;;;25.80;68.60;;;;;;5075663;28;20548;-80
2022/07/07 15:01:56;;;;;;;0.97;0.70;;;25.80;68.60;;;;;;5076049;28;20862;-80
2022/07/07 15:04:22;;;;;;;1.00;0.67;;;25.80;68.60;;;;;;5076288;28;20441;-90
2022/07/07 15:06:50;;;;;;;1.50;0.70;;;25.80;68.50;;;;;;5075714;28;20443;-80
2022/07/07 15:09:17;;;;;;;0.90;0.60;;;25.80;68.40;;;;;;5075718;28;20536;-80
2022/07/07 15:11:44;;;;;;;0.83;0.60;;;25.80;68.40;;;;;;5075770;28;20524;-80
2022/07/07 15:14:10;;;;;;;0.90;0.70;;;25.80;68.40;;;;;;5075410;28;20534;-80
2022/07/07 15:16:39;;;;;;;0.90;0.60;;;25.80;68.30;;;;;;5075701;28;20532;-90
2022/07/07 15:19:06;;;;;;;1.63;0.80;;;25.80;68.30;;;;;;5075362;28;20931;-80
2022/07/07 15:21:33;;;;;;;1.00;0.70;;;25.80;68.30;;;;;;5076174;28;20539;-80
2022/07/07 15:24:00;;;;;;;1.10;0.97;;;25.80;68.20;;;;;;5075516;28;20476;-90
2022/07/07 15:26:26;;;;;;;1.10;0.70;;;25.80;68.20;;;;;;5075515;28;20441;-80
2022/07/07 15:28:53;;;;;;;0.90;0.70;;;25.80;68.20;;;;;;5075254;28;20533;-80
2022/07/07 15:31:20;;;;;;;1.00;0.70;;;25.80;68.20;;;;;;5075071;28;20556;-80
2022/07/07 15:33:49;;;;;;;1.30;0.80;;;25.80;69.10;;;;;;5075333;28;21016;-80
2022/07/07 15:36:15;;;;;;;0.90;0.70;;;25.80;68.20;;;;;;5075353;28;20529;-80
2022/07/07 15:38:42;;;;;;;0.90;0.70;;;25.80;68.10;;;;;;5075523;28;20452;-80
2022/07/07 15:41:13;;;;;;;1.00;0.70;;;25.80;68.10;;;;;;5074905;28;20560;-80
2022/07/07 15:43:41;;;;;;;0.90;0.60;;;25.80;68.10;;;;;;5075733;28;20444;-80
2022/07/07 15:46:11;;;;;;;0.90;0.70;;;25.80;68.10;;;;;;5075202;28;20854;-81
2022/07/07 15:48:42;;;;;;;1.00;0.80;;;25.80;68.20;;;;;;5074878;28;20460;-80
2022/07/07 15:51:11;;;;;;;1.63;0.90;;;25.80;68.10;;;;;;5075142;28;20445;-80
2022/07/07 15:53:38;;;;;;;0.90;0.70;;;25.80;68.10;;;;;;5074145;28;20456;-81
2022/07/07 15:56:05;;;;;;;1.00;0.80;;;25.80;68.00;;;;;;5074809;28;20520;-80
2022/07/07 15:58:32;;;;;;;1.10;0.70;;;25.80;68.00;;;;;;5074883;28;20448;-80
2022/07/07 16:00:59;;;;;;;1.70;0.90;;;25.80;68.00;;;;;;5074476;28;20575;-80
2022/07/07 16:03:26;;;;;;;1.03;0.70;;;25.80;68.00;;;;;;5075003;28;20525;-80
2022/07/07 16:05:53;;;;;;;1.40;0.70;;;25.80;67.90;;;;;;5074855;28;20519;-80
2022/07/07 16:08:21;;;;;;;1.00;0.80;;;25.80;67.80;;;;;;5077631;28;21022;-80
2022/07/07 16:10:48;;;;;;;1.20;0.90;;;25.80;67.80;;;;;;5078086;28;20524;-80
2022/07/07 16:13:15;;;;;;;0.90;0.70;;;25.80;67.80;;;;;;5074660;28;20547;-80
2022/07/07 16:15:42;;;;;;;1.00;0.60;;;25.80;67.70;;;;;;5074611;28;20576;-80
2022/07/07 16:18:08;;;;;;;1.40;0.80;;;25.80;67.70;;;;;;5074678;28;20529;-81
2022/07/07 16:20:35;;;;;;;1.00;0.70;;;25.80;67.50;;;;;;5074498;28;20861;-80
2022/07/07 16:23:02;;;;;;;1.00;0.80;;;25.80;67.50;;;;;;5074224;28;20443;-80
2022/07/07 16:25:30;;;;;;;1.93;0.80;;;25.80;67.50;;;;;;5074016;28;20878;-80
2022/07/07 16:27:58;;;;;;;1.50;0.90;;;25.80;67.40;;;;;;5073901;28;20524;-80
2022/07/07 16:30:25;;;;;;;0.97;0.70;;;25.80;67.40;;;;;;5074000;28;20465;-80
2022/07/07 16:32:52;;;;;;;1.40;0.80;;;25.80;67.40;;;;;;5073998;28;20528;-80
2022/07/07 16:35:18;;;;;;;1.80;1.00;;;25.80;67.40;;;;;;5073831;28;20488;-86
2022/07/07 16:37:45;;;;;;;1.20;0.80;;;25.80;67.30;;;;;;5073794;28;20890;-80
2022/07/07 16:40:12;;;;;;;0.90;0.60;;;25.80;67.20;;;;;;5073720;28;20441;-80
2022/07/07 16:42:40;;;;;;;1.03;0.80;;;25.80;67.20;;;;;;5074009;28;20534;-80
2022/07/07 16:45:08;;;;;;;1.13;1.00;;;25.80;67.10;;;;;;5074627;28;20531;-80
2022/07/07 16:47:35;;;;;;;2.10;0.70;;;25.80;67.10;;;;;;5073468;28;20443;-80
2022/07/07 16:50:02;;;;;;;1.00;0.80;;;25.80;67.00;;;;;;5074770;28;21018;-84
2022/07/07 16:52:28;;;;;;;1.00;0.70;;;25.80;67.00;;;;;;5074530;28;20574;-81
2022/07/07 16:54:55;;;;;;;1.03;0.80;;;25.80;66.90;;;;;;5073446;28;20494;-80
2022/07/07 16:57:23;;;;;;;1.33;0.80;;;25.80;67.00;;;;;;5073871;28;20531;-84
2022/07/07 16:59:51;;;;;;;1.20;0.80;;;25.80;66.90;;;;;;5076838;28;20548;-80
2022/07/07 17:02:18;;;;;;;1.20;0.90;;;25.80;66.90;;;;;;5075186;28;20483;-80
2022/07/07 17:04:45;;;;;;;1.00;0.70;;;25.80;66.90;;;;;;5075847;28;20532;-80
2022/07/07 17:07:12;;;;;;;1.67;0.80;;;25.80;66.90;;;;;;5075513;28;20433;-80
2022/07/07 17:09:38;;;;;;;1.20;0.90;;;25.80;66.90;;;;;;5073764;28;20884;-82
2022/07/07 17:12:06;;;;;;;0.90;0.60;;;25.70;66.80;;;;;;5074538;28;20523;-80
2022/07/07 17:14:33;;;;;;;1.20;0.80;;;25.80;66.80;;;;;;5074464;28;20559;-80
2022/07/07 17:17:01;;;;;;;1.20;0.77;;;25.80;66.70;;;;;;5074283;28;20463;-80
2022/07/07 17:19:28;;;;;;;1.33;0.97;;;25.80;66.80;;;;;;5073634;28;20539;-80
2022/07/07 17:21:55;;;;;;;1.47;0.80;;;25.80;66.60;;;;;;5073971;28;20444;-80
2022/07/07 17:24:22;;;;;;;1.00;0.70;;;25.80;66.60;;;;;;5073704;28;20502;-80
2022/07/07 17:26:49;;;;;;;1.70;0.70;;;25.80;66.60;;;;;;5075043;28;20527;-81
2022/07/07 17:29:16;;;;;;;1.00;0.80;;;25.80;66.60;;;;;;5072971;28;20469;-80
2022/07/07 17:31:44;;;;;;;1.00;0.70;;;25.80;66.50;;;;;;5073861;28;20540;-80
2022/07/07 17:34:12;;;;;;;1.20;0.80;;;25.80;66.50;;;;;;5074150;28;20528;-87
2022/07/07 17:36:39;;;;;;;1.10;1.00;;;25.80;66.50;;;;;;5073475;28;20437;-80
2022/07/07 17:39:07;;;;;;;0.90;0.70;;;25.80;66.50;;;;;;5073934;28;20433;-81
2022/07/07 17:41:34;;;;;;;1.03;0.70;;;25.80;66.40;;;;;;5074418;28;20500;-79
2022/07/07 17:44:01;;;;;;;1.30;0.80;;;25.80;66.40;;;;;;5075813;28;20535;-79
2022/07/07 17:46:28;;;;;;;2.20;0.80;;;25.80;66.40;;;;;;5074057;28;20540;-79
2022/07/07 17:48:55;;;;;;;1.10;0.90;;;25.80;66.20;;;;;;5075244;28;20928;-80
2022/07/07 17:51:23;;;;;;;1.10;0.80;;;25.80;66.20;;;;;;5073518;28;20795;-79
2022/07/07 17:53:50;;;;;;;1.07;0.80;;;25.80;66.10;;;;;;5073724;28;20531;-81
2022/07/07 17:56:17;;;;;;;1.10;0.90;;;25.80;66.10;;;;;;5072954;28;20487;-81
2022/07/07 17:58:45;;;;;;;1.17;0.90;;;25.80;66.10;;;;;;5072742;28;20527;-81
2022/07/07 18:01:13;;;;;;;1.20;0.80;;;25.80;66.00;;;;;;5072850;28;20815;-81
2022/07/07 18:03:39;;;;;;;1.70;0.80;;;25.80;66.00;;;;;;5072921;28;20440;-81
2022/07/07 18:06:07;;;;;;;1.10;0.80;;;25.80;65.90;;;;;;5072767;28;20516;-81
2022/07/07 18:08:37;;;;;;;1.53;0.90;;;25.80;65.90;;;;;;5072634;28;20520;-81
2022/07/07 18:11:05;;;;;;;0.90;0.70;;;25.80;65.90;;;;;;5072817;28;20575;-80
2022/07/07 18:13:32;;;;;;;1.60;1.10;;;25.80;65.90;;;;;;5072761;28;21019;-81
2022/07/07 18:15:59;;;;;;;1.67;0.73;;;25.80;65.90;;;;;;5072862;28;21038;-81
2022/07/07 18:18:26;;;;;;;1.60;0.90;;;25.80;65.80;;;;;;5075585;28;20928;-82
2022/07/07 18:20:53;;;;;;;1.30;1.00;;;25.80;65.70;;;;;;5076426;28;20531;-81
2022/07/07 18:23:19;;;;;;;1.33;0.87;;;25.80;65.70;;;;;;5076514;28;20531;-81
2022/07/07 18:25:48;;;;;;;1.10;0.83;;;25.80;65.70;;;;;;5076378;28;20441;-81
2022/07/07 18:28:15;;;;;;;1.73;0.80;;;25.80;65.60;;;;;;5076106;28;20485;-82
2022/07/07 18:30:41;;;;;;;1.10;0.70;;;25.80;65.50;;;;;;5076094;28;20886;-91
2022/07/07 18:33:08;;;;;;;1.40;1.00;;;25.80;65.50;;;;;;5076288;28;20523;-81
2022/07/07 18:35:36;;;;;;;1.00;0.80;;;25.80;65.50;;;;;;5076249;28;20504;-81
2022/07/07 18:38:04;;;;;;;1.50;0.90;;;25.80;65.50;;;;;;5076418;28;20469;-81
2022/07/07 18:40:31;;;;;;;1.10;0.80;;;25.80;65.40;;;;;;5076191;28;20557;-91
2022/07/07 18:42:59;;;;;;;1.30;0.90;;;25.80;65.40;;;;;;5076111;28;20516;-81
2022/07/07 18:45:26;;;;;;;1.20;0.80;;;25.80;65.40;;;;;;5076176;28;20433;-81
2022/07/07 18:47:53;;;;;;;1.40;0.93;;;25.80;65.30;;;;;;5075948;28;20531;-81
2022/07/07 18:50:20;;;;;;;1.10;0.73;;;25.80;65.40;;;;;;5075966;28;20528;-81